sensor_id;sensor_type;location;lat;lon;timestamp;P1;durP1;ratioP1;P2;durP2;ratioP2
71296;SDS011;59082;50.658;4.608;2022-07-23T00:01:16;19.97;;;12.63;;
71296;SDS011;59082;50.658;4.608;2022-07-23T00:03:41;21.60;;;13.90;;
71296;SDS011;59082;50.658;4.608;2022-07-23T00:06:07;19.37;;;12.77;;
71296;SDS011;59082;50.658;4.608;2022-07-23T00:08:32;22.60;;;13.80;;
71296;SDS011;59082;50.658;4.608;2022-07-23T00:10:58;25.45;;;15.43;;
71296;SDS011;59082;50.658;4.608;2022-07-23T00:13:24;19.93;;;13.87;;
71296;SDS011;59082;50.658;4.608;2022-07-23T00:15:49;19.83;;;13.57;;
71296;SDS011;59082;50.658;4.608;2022-07-23T00:18:15;21.00;;;13.48;;
71296;SDS011;59082;50.658;4.608;2022-07-23T00:20:40;18.03;;;12.57;;
71296;SDS011;59082;50.658;4.608;2022-07-23T00:23:06;19.80;;;12.95;;
71296;SDS011;59082;50.658;4.608;2022-07-23T00:25:31;21.37;;;13.87;;
71296;SDS011;59082;50.658;4.608;2022-07-23T00:27:57;19.33;;;13.17;;
71296;SDS011;59082;50.658;4.608;2022-07-23T00:30:24;17.65;;;12.43;;
71296;SDS011;59082;50.658;4.608;2022-07-23T00:32:51;27.75;;;15.10;;
71296;SDS011;59082;50.658;4.608;2022-07-23T00:35:21;23.58;;;15.70;;
71296;SDS011;59082;50.658;4.608;2022-07-23T00:37:48;22.98;;;13.70;;
71296;SDS011;59082;50.658;4.608;2022-07-23T00:40:13;25.80;;;14.57;;
71296;SDS011;59082;50.658;4.608;2022-07-23T00:42:39;24.25;;;13.43;;
71296;SDS011;59082;50.658;4.608;2022-07-23T00:45:05;22.30;;;13.23;;
71296;SDS011;59082;50.658;4.608;2022-07-23T00:47:32;25.02;;;15.15;;
71296;SDS011;59082;50.658;4.608;2022-07-23T00:49:57;20.00;;;13.77;;
71296;SDS011;59082;50.658;4.608;2022-07-23T00:52:23;24.17;;;13.27;;
71296;SDS011;59082;50.658;4.608;2022-07-23T00:54:49;19.07;;;12.53;;
71296;SDS011;59082;50.658;4.608;2022-07-23T00:57:15;20.85;;;14.10;;
71296;SDS011;59082;50.658;4.608;2022-07-23T00:59:41;22.20;;;14.88;;
71296;SDS011;59082;50.658;4.608;2022-07-23T01:02:07;23.20;;;14.47;;
71296;SDS011;59082;50.658;4.608;2022-07-23T01:04:33;24.42;;;14.38;;
71296;SDS011;59082;50.658;4.608;2022-07-23T01:06:59;20.52;;;13.52;;
71296;SDS011;59082;50.658;4.608;2022-07-23T01:09:25;21.03;;;13.77;;
71296;SDS011;59082;50.658;4.608;2022-07-23T01:11:51;23.08;;;14.63;;
71296;SDS011;59082;50.658;4.608;2022-07-23T01:14:19;23.95;;;13.77;;
71296;SDS011;59082;50.658;4.608;2022-07-23T01:16:46;23.73;;;14.10;;
71296;SDS011;59082;50.658;4.608;2022-07-23T01:19:12;21.98;;;13.98;;
71296;SDS011;59082;50.658;4.608;2022-07-23T01:21:42;23.63;;;13.90;;
71296;SDS011;59082;50.658;4.608;2022-07-23T01:24:11;21.45;;;13.15;;
71296;SDS011;59082;50.658;4.608;2022-07-23T01:26:37;22.33;;;14.10;;
71296;SDS011;59082;50.658;4.608;2022-07-23T01:29:04;21.90;;;13.47;;
71296;SDS011;59082;50.658;4.608;2022-07-23T01:31:30;22.52;;;13.57;;
71296;SDS011;59082;50.658;4.608;2022-07-23T01:33:56;21.38;;;13.88;;
71296;SDS011;59082;50.658;4.608;2022-07-23T01:36:22;19.35;;;11.88;;
71296;SDS011;59082;50.658;4.608;2022-07-23T01:38:49;22.42;;;13.07;;
71296;SDS011;59082;50.658;4.608;2022-07-23T01:41:15;22.70;;;13.07;;
71296;SDS011;59082;50.658;4.608;2022-07-23T01:43:40;20.92;;;13.13;;
71296;SDS011;59082;50.658;4.608;2022-07-23T01:46:06;20.23;;;13.87;;
71296;SDS011;59082;50.658;4.608;2022-07-23T01:48:31;22.30;;;13.68;;
71296;SDS011;59082;50.658;4.608;2022-07-23T01:50:57;19.80;;;12.77;;
71296;SDS011;59082;50.658;4.608;2022-07-23T01:53:22;19.23;;;13.17;;
71296;SDS011;59082;50.658;4.608;2022-07-23T01:55:48;23.17;;;13.07;;
71296;SDS011;59082;50.658;4.608;2022-07-23T01:58:13;20.55;;;13.15;;
71296;SDS011;59082;50.658;4.608;2022-07-23T02:00:39;23.57;;;13.13;;
71296;SDS011;59082;50.658;4.608;2022-07-23T02:03:04;21.90;;;11.88;;
71296;SDS011;59082;50.658;4.608;2022-07-23T02:05:30;20.23;;;12.87;;
71296;SDS011;59082;50.658;4.608;2022-07-23T02:07:57;19.48;;;12.23;;
71296;SDS011;59082;50.658;4.608;2022-07-23T02:10:23;18.98;;;13.18;;
71296;SDS011;59082;50.658;4.608;2022-07-23T02:12:49;18.73;;;12.43;;
71296;SDS011;59082;50.658;4.608;2022-07-23T02:15:15;18.27;;;12.90;;
71296;SDS011;59082;50.658;4.608;2022-07-23T02:17:40;17.55;;;11.48;;
71296;SDS011;59082;50.658;4.608;2022-07-23T02:20:07;20.33;;;13.07;;
71296;SDS011;59082;50.658;4.608;2022-07-23T02:22:33;21.92;;;13.48;;
71296;SDS011;59082;50.658;4.608;2022-07-23T02:24:59;21.27;;;13.37;;
71296;SDS011;59082;50.658;4.608;2022-07-23T02:27:25;19.40;;;12.65;;
71296;SDS011;59082;50.658;4.608;2022-07-23T02:29:50;17.90;;;11.93;;
71296;SDS011;59082;50.658;4.608;2022-07-23T02:32:16;21.55;;;13.27;;
71296;SDS011;59082;50.658;4.608;2022-07-23T02:34:42;18.07;;;12.00;;
71296;SDS011;59082;50.658;4.608;2022-07-23T02:37:07;17.15;;;12.27;;
71296;SDS011;59082;50.658;4.608;2022-07-23T02:39:34;18.02;;;11.93;;
71296;SDS011;59082;50.658;4.608;2022-07-23T02:42:02;20.50;;;13.27;;
71296;SDS011;59082;50.658;4.608;2022-07-23T02:44:27;19.17;;;12.52;;
71296;SDS011;59082;50.658;4.608;2022-07-23T02:46:53;21.23;;;12.80;;
71296;SDS011;59082;50.658;4.608;2022-07-23T02:49:19;20.20;;;12.70;;
71296;SDS011;59082;50.658;4.608;2022-07-23T02:51:44;19.27;;;11.70;;
71296;SDS011;59082;50.658;4.608;2022-07-23T02:54:09;16.83;;;11.77;;
71296;SDS011;59082;50.658;4.608;2022-07-23T02:56:35;18.83;;;12.60;;
71296;SDS011;59082;50.658;4.608;2022-07-23T02:59:01;19.87;;;11.87;;
71296;SDS011;59082;50.658;4.608;2022-07-23T03:01:26;18.80;;;13.47;;
71296;SDS011;59082;50.658;4.608;2022-07-23T03:03:52;17.77;;;12.10;;
71296;SDS011;59082;50.658;4.608;2022-07-23T03:06:17;17.90;;;11.50;;
71296;SDS011;59082;50.658;4.608;2022-07-23T03:08:43;20.90;;;11.87;;
71296;SDS011;59082;50.658;4.608;2022-07-23T03:11:08;18.48;;;12.60;;
71296;SDS011;59082;50.658;4.608;2022-07-23T03:13:39;19.87;;;11.20;;
71296;SDS011;59082;50.658;4.608;2022-07-23T03:16:06;17.77;;;11.88;;
71296;SDS011;59082;50.658;4.608;2022-07-23T03:18:32;16.85;;;11.95;;
71296;SDS011;59082;50.658;4.608;2022-07-23T03:20:58;20.95;;;11.15;;
71296;SDS011;59082;50.658;4.608;2022-07-23T03:23:24;18.93;;;11.40;;
71296;SDS011;59082;50.658;4.608;2022-07-23T03:25:49;16.42;;;11.35;;
71296;SDS011;59082;50.658;4.608;2022-07-23T03:28:15;18.43;;;11.87;;
71296;SDS011;59082;50.658;4.608;2022-07-23T03:30:42;23.40;;;11.82;;
71296;SDS011;59082;50.658;4.608;2022-07-23T03:33:08;16.17;;;10.70;;
71296;SDS011;59082;50.658;4.608;2022-07-23T03:35:33;19.40;;;12.27;;
71296;SDS011;59082;50.658;4.608;2022-07-23T03:37:59;18.75;;;11.57;;
71296;SDS011;59082;50.658;4.608;2022-07-23T03:40:25;18.47;;;12.43;;
71296;SDS011;59082;50.658;4.608;2022-07-23T03:42:50;17.40;;;12.02;;
71296;SDS011;59082;50.658;4.608;2022-07-23T03:45:16;20.30;;;12.13;;
71296;SDS011;59082;50.658;4.608;2022-07-23T03:47:41;25.30;;;12.90;;
71296;SDS011;59082;50.658;4.608;2022-07-23T03:50:08;19.10;;;12.80;;
71296;SDS011;59082;50.658;4.608;2022-07-23T03:52:34;21.45;;;12.75;;
71296;SDS011;59082;50.658;4.608;2022-07-23T03:54:59;19.60;;;12.00;;
71296;SDS011;59082;50.658;4.608;2022-07-23T03:57:25;21.87;;;12.60;;
71296;SDS011;59082;50.658;4.608;2022-07-23T03:59:50;19.02;;;12.45;;
71296;SDS011;59082;50.658;4.608;2022-07-23T04:02:16;19.33;;;12.50;;
71296;SDS011;59082;50.658;4.608;2022-07-23T04:04:41;18.23;;;11.60;;
71296;SDS011;59082;50.658;4.608;2022-07-23T04:07:07;19.40;;;11.02;;
71296;SDS011;59082;50.658;4.608;2022-07-23T04:09:33;19.03;;;11.57;;
71296;SDS011;59082;50.658;4.608;2022-07-23T04:11:58;19.30;;;11.88;;
71296;SDS011;59082;50.658;4.608;2022-07-23T04:14:24;19.25;;;11.43;;
71296;SDS011;59082;50.658;4.608;2022-07-23T04:16:50;20.20;;;11.23;;
71296;SDS011;59082;50.658;4.608;2022-07-23T04:19:15;18.93;;;11.03;;
71296;SDS011;59082;50.658;4.608;2022-07-23T04:21:41;18.92;;;11.90;;
71296;SDS011;59082;50.658;4.608;2022-07-23T04:24:06;19.13;;;12.00;;
71296;SDS011;59082;50.658;4.608;2022-07-23T04:26:32;18.60;;;12.63;;
71296;SDS011;59082;50.658;4.608;2022-07-23T04:28:57;18.13;;;11.40;;
71296;SDS011;59082;50.658;4.608;2022-07-23T04:31:23;17.03;;;11.57;;
71296;SDS011;59082;50.658;4.608;2022-07-23T04:33:48;16.35;;;12.57;;
71296;SDS011;59082;50.658;4.608;2022-07-23T04:36:14;19.63;;;11.70;;
71296;SDS011;59082;50.658;4.608;2022-07-23T04:38:39;18.33;;;11.70;;
71296;SDS011;59082;50.658;4.608;2022-07-23T04:41:05;18.07;;;11.33;;
71296;SDS011;59082;50.658;4.608;2022-07-23T04:43:30;21.27;;;12.23;;
71296;SDS011;59082;50.658;4.608;2022-07-23T04:45:56;19.17;;;11.73;;
71296;SDS011;59082;50.658;4.608;2022-07-23T04:48:22;17.47;;;11.87;;
71296;SDS011;59082;50.658;4.608;2022-07-23T04:50:47;18.03;;;11.70;;
71296;SDS011;59082;50.658;4.608;2022-07-23T04:53:13;18.23;;;12.90;;
71296;SDS011;59082;50.658;4.608;2022-07-23T04:55:38;20.30;;;12.18;;
71296;SDS011;59082;50.658;4.608;2022-07-23T04:58:04;16.60;;;10.70;;
71296;SDS011;59082;50.658;4.608;2022-07-23T05:00:29;18.17;;;12.07;;
71296;SDS011;59082;50.658;4.608;2022-07-23T05:02:55;20.77;;;14.25;;
71296;SDS011;59082;50.658;4.608;2022-07-23T05:05:20;21.93;;;12.57;;
71296;SDS011;59082;50.658;4.608;2022-07-23T05:07:46;21.70;;;12.57;;
71296;SDS011;59082;50.658;4.608;2022-07-23T05:10:12;18.65;;;12.05;;
71296;SDS011;59082;50.658;4.608;2022-07-23T05:12:37;18.80;;;12.07;;
71296;SDS011;59082;50.658;4.608;2022-07-23T05:15:03;18.48;;;12.25;;
71296;SDS011;59082;50.658;4.608;2022-07-23T05:17:29;18.30;;;12.63;;
71296;SDS011;59082;50.658;4.608;2022-07-23T05:19:54;20.42;;;13.00;;
71296;SDS011;59082;50.658;4.608;2022-07-23T05:22:20;18.87;;;13.73;;
71296;SDS011;59082;50.658;4.608;2022-07-23T05:24:45;19.43;;;12.73;;
71296;SDS011;59082;50.658;4.608;2022-07-23T05:27:11;18.10;;;13.02;;
71296;SDS011;59082;50.658;4.608;2022-07-23T05:29:36;17.23;;;11.80;;
71296;SDS011;59082;50.658;4.608;2022-07-23T05:32:02;18.50;;;12.50;;
71296;SDS011;59082;50.658;4.608;2022-07-23T05:34:28;20.95;;;13.40;;
71296;SDS011;59082;50.658;4.608;2022-07-23T05:36:53;19.30;;;13.13;;
71296;SDS011;59082;50.658;4.608;2022-07-23T05:39:19;18.77;;;12.23;;
71296;SDS011;59082;50.658;4.608;2022-07-23T05:41:44;19.83;;;13.60;;
71296;SDS011;59082;50.658;4.608;2022-07-23T05:44:10;15.47;;;11.00;;
71296;SDS011;59082;50.658;4.608;2022-07-23T05:46:35;17.08;;;12.00;;
71296;SDS011;59082;50.658;4.608;2022-07-23T05:49:01;16.00;;;11.37;;
71296;SDS011;59082;50.658;4.608;2022-07-23T05:51:26;17.67;;;11.27;;
71296;SDS011;59082;50.658;4.608;2022-07-23T05:53:52;15.95;;;11.27;;
71296;SDS011;59082;50.658;4.608;2022-07-23T05:56:17;18.27;;;11.73;;
71296;SDS011;59082;50.658;4.608;2022-07-23T05:58:43;16.08;;;10.50;;
71296;SDS011;59082;50.658;4.608;2022-07-23T06:01:09;19.10;;;11.80;;
71296;SDS011;59082;50.658;4.608;2022-07-23T06:03:37;26.98;;;11.90;;
71296;SDS011;59082;50.658;4.608;2022-07-23T06:06:03;14.88;;;10.65;;
71296;SDS011;59082;50.658;4.608;2022-07-23T06:08:29;15.20;;;10.63;;
71296;SDS011;59082;50.658;4.608;2022-07-23T06:10:54;14.43;;;11.13;;
71296;SDS011;59082;50.658;4.608;2022-07-23T06:13:20;14.33;;;11.33;;
71296;SDS011;59082;50.658;4.608;2022-07-23T06:15:46;17.10;;;12.30;;
71296;SDS011;59082;50.658;4.608;2022-07-23T06:18:12;16.07;;;10.83;;
71296;SDS011;59082;50.658;4.608;2022-07-23T06:20:38;17.57;;;11.20;;
71296;SDS011;59082;50.658;4.608;2022-07-23T06:23:04;16.35;;;11.65;;
71296;SDS011;59082;50.658;4.608;2022-07-23T06:25:30;16.87;;;11.57;;
71296;SDS011;59082;50.658;4.608;2022-07-23T06:27:55;14.47;;;10.90;;
71296;SDS011;59082;50.658;4.608;2022-07-23T06:30:21;15.25;;;11.05;;
71296;SDS011;59082;50.658;4.608;2022-07-23T06:32:47;16.83;;;11.67;;
71296;SDS011;59082;50.658;4.608;2022-07-23T06:35:13;15.02;;;11.68;;
71296;SDS011;59082;50.658;4.608;2022-07-23T06:37:38;16.13;;;11.23;;
71296;SDS011;59082;50.658;4.608;2022-07-23T06:40:04;13.65;;;10.55;;
71296;SDS011;59082;50.658;4.608;2022-07-23T06:42:30;16.43;;;11.37;;
71296;SDS011;59082;50.658;4.608;2022-07-23T06:44:55;16.92;;;11.80;;
71296;SDS011;59082;50.658;4.608;2022-07-23T06:47:21;13.23;;;11.27;;
71296;SDS011;59082;50.658;4.608;2022-07-23T06:49:47;15.75;;;11.75;;
71296;SDS011;59082;50.658;4.608;2022-07-23T06:52:12;14.00;;;10.93;;
71296;SDS011;59082;50.658;4.608;2022-07-23T06:54:38;13.95;;;10.90;;
71296;SDS011;59082;50.658;4.608;2022-07-23T06:57:04;14.20;;;10.83;;
71296;SDS011;59082;50.658;4.608;2022-07-23T06:59:29;14.63;;;11.23;;
71296;SDS011;59082;50.658;4.608;2022-07-23T07:01:55;15.23;;;10.85;;
71296;SDS011;59082;50.658;4.608;2022-07-23T07:04:20;14.90;;;10.63;;
71296;SDS011;59082;50.658;4.608;2022-07-23T07:06:46;15.90;;;11.20;;
71296;SDS011;59082;50.658;4.608;2022-07-23T07:09:11;14.20;;;11.23;;
71296;SDS011;59082;50.658;4.608;2022-07-23T07:11:37;21.20;;;12.97;;
71296;SDS011;59082;50.658;4.608;2022-07-23T07:14:02;17.20;;;11.98;;
71296;SDS011;59082;50.658;4.608;2022-07-23T07:16:29;16.77;;;11.47;;
71296;SDS011;59082;50.658;4.608;2022-07-23T07:18:55;14.38;;;10.00;;
71296;SDS011;59082;50.658;4.608;2022-07-23T07:21:20;16.83;;;11.20;;
71296;SDS011;59082;50.658;4.608;2022-07-23T07:23:46;15.37;;;10.37;;
71296;SDS011;59082;50.658;4.608;2022-07-23T07:26:11;12.70;;;10.93;;
71296;SDS011;59082;50.658;4.608;2022-07-23T07:28:37;16.60;;;11.63;;
71296;SDS011;59082;50.658;4.608;2022-07-23T07:31:02;13.90;;;11.10;;
71296;SDS011;59082;50.658;4.608;2022-07-23T07:33:28;15.40;;;10.90;;
71296;SDS011;59082;50.658;4.608;2022-07-23T07:35:54;15.35;;;11.25;;
71296;SDS011;59082;50.658;4.608;2022-07-23T07:38:19;14.13;;;9.53;;
71296;SDS011;59082;50.658;4.608;2022-07-23T07:40:45;14.13;;;10.18;;
71296;SDS011;59082;50.658;4.608;2022-07-23T07:43:10;13.20;;;9.17;;
71296;SDS011;59082;50.658;4.608;2022-07-23T07:45:36;13.67;;;8.30;;
71296;SDS011;59082;50.658;4.608;2022-07-23T07:48:01;13.93;;;9.25;;
71296;SDS011;59082;50.658;4.608;2022-07-23T07:50:27;12.63;;;8.87;;
71296;SDS011;59082;50.658;4.608;2022-07-23T07:52:53;13.93;;;8.27;;
71296;SDS011;59082;50.658;4.608;2022-07-23T07:55:18;12.47;;;7.07;;
71296;SDS011;59082;50.658;4.608;2022-07-23T07:57:44;12.38;;;7.28;;
71296;SDS011;59082;50.658;4.608;2022-07-23T08:00:10;13.43;;;8.57;;
71296;SDS011;59082;50.658;4.608;2022-07-23T08:02:40;11.35;;;8.27;;
71296;SDS011;59082;50.658;4.608;2022-07-23T08:05:05;12.43;;;8.25;;
71296;SDS011;59082;50.658;4.608;2022-07-23T08:07:31;12.43;;;7.50;;
71296;SDS011;59082;50.658;4.608;2022-07-23T08:09:57;10.45;;;7.65;;
71296;SDS011;59082;50.658;4.608;2022-07-23T08:12:22;9.80;;;6.70;;
71296;SDS011;59082;50.658;4.608;2022-07-23T08:14:48;13.43;;;6.43;;
71296;SDS011;59082;50.658;4.608;2022-07-23T08:17:13;12.87;;;6.23;;
71296;SDS011;59082;50.658;4.608;2022-07-23T08:19:39;9.90;;;6.33;;
71296;SDS011;59082;50.658;4.608;2022-07-23T08:22:04;9.80;;;6.13;;
71296;SDS011;59082;50.658;4.608;2022-07-23T08:24:30;8.07;;;5.57;;
71296;SDS011;59082;50.658;4.608;2022-07-23T08:26:55;11.60;;;5.33;;
71296;SDS011;59082;50.658;4.608;2022-07-23T08:29:21;8.13;;;5.40;;
71296;SDS011;59082;50.658;4.608;2022-07-23T08:31:46;9.03;;;6.40;;
71296;SDS011;59082;50.658;4.608;2022-07-23T08:34:12;9.27;;;6.37;;
71296;SDS011;59082;50.658;4.608;2022-07-23T08:36:37;9.07;;;5.63;;
71296;SDS011;59082;50.658;4.608;2022-07-23T08:39:03;10.57;;;6.77;;
71296;SDS011;59082;50.658;4.608;2022-07-23T08:41:28;8.30;;;5.73;;
71296;SDS011;59082;50.658;4.608;2022-07-23T08:43:54;9.20;;;5.75;;
71296;SDS011;59082;50.658;4.608;2022-07-23T08:46:20;11.63;;;6.97;;
71296;SDS011;59082;50.658;4.608;2022-07-23T08:48:48;8.57;;;5.90;;
71296;SDS011;59082;50.658;4.608;2022-07-23T08:51:15;9.63;;;5.65;;
71296;SDS011;59082;50.658;4.608;2022-07-23T08:53:41;10.57;;;6.13;;
71296;SDS011;59082;50.658;4.608;2022-07-23T08:56:07;10.50;;;5.75;;
71296;SDS011;59082;50.658;4.608;2022-07-23T08:58:33;7.65;;;5.75;;
71296;SDS011;59082;50.658;4.608;2022-07-23T09:01:00;8.60;;;6.13;;
71296;SDS011;59082;50.658;4.608;2022-07-23T09:03:27;7.72;;;6.07;;
71296;SDS011;59082;50.658;4.608;2022-07-23T09:05:54;9.30;;;6.63;;
71296;SDS011;59082;50.658;4.608;2022-07-23T09:08:22;9.98;;;5.63;;
71296;SDS011;59082;50.658;4.608;2022-07-23T09:11:00;10.38;;;6.80;;
71296;SDS011;59082;50.658;4.608;2022-07-23T09:19:03;11.45;;;6.90;;
71296;SDS011;59082;50.658;4.608;2022-07-23T09:21:31;11.82;;;7.22;;
71296;SDS011;59082;50.658;4.608;2022-07-23T09:26:27;11.23;;;6.00;;
71296;SDS011;59082;50.658;4.608;2022-07-23T09:28:57;10.57;;;6.68;;
71296;SDS011;59082;50.658;4.608;2022-07-23T09:31:35;7.38;;;6.15;;
71296;SDS011;59082;50.658;4.608;2022-07-23T09:34:08;7.85;;;5.97;;
71296;SDS011;59082;50.658;4.608;2022-07-23T09:36:36;8.00;;;6.32;;
71296;SDS011;59082;50.658;4.608;2022-07-23T09:39:02;8.17;;;5.43;;
71296;SDS011;59082;50.658;4.608;2022-07-23T09:41:33;8.07;;;5.43;;
71296;SDS011;59082;50.658;4.608;2022-07-23T09:44:08;7.55;;;5.18;;
71296;SDS011;59082;50.658;4.608;2022-07-23T09:46:35;7.60;;;4.83;;
71296;SDS011;59082;50.658;4.608;2022-07-23T09:49:09;7.22;;;5.00;;
71296;SDS011;59082;50.658;4.608;2022-07-23T09:51:44;6.28;;;5.50;;
71296;SDS011;59082;50.658;4.608;2022-07-23T09:54:24;7.47;;;5.80;;
71296;SDS011;59082;50.658;4.608;2022-07-23T09:57:07;10.63;;;5.93;;
71296;SDS011;59082;50.658;4.608;2022-07-23T09:59:43;7.60;;;5.10;;
71296;SDS011;59082;50.658;4.608;2022-07-23T10:02:11;7.00;;;5.95;;
71296;SDS011;59082;50.658;4.608;2022-07-23T10:04:38;8.13;;;5.28;;
71296;SDS011;59082;50.658;4.608;2022-07-23T10:07:05;8.45;;;5.13;;
71296;SDS011;59082;50.658;4.608;2022-07-23T10:09:34;9.43;;;5.05;;
71296;SDS011;59082;50.658;4.608;2022-07-23T10:12:09;10.40;;;5.47;;
71296;SDS011;59082;50.658;4.608;2022-07-23T10:14:48;8.02;;;4.95;;
71296;SDS011;59082;50.658;4.608;2022-07-23T10:17:14;6.93;;;4.70;;
71296;SDS011;59082;50.658;4.608;2022-07-23T10:19:40;7.32;;;4.53;;
71296;SDS011;59082;50.658;4.608;2022-07-23T10:22:07;8.27;;;4.50;;
71296;SDS011;59082;50.658;4.608;2022-07-23T10:24:47;5.67;;;4.77;;
71296;SDS011;59082;50.658;4.608;2022-07-23T10:27:19;5.97;;;4.57;;
71296;SDS011;59082;50.658;4.608;2022-07-23T10:30:05;6.97;;;4.85;;
71296;SDS011;59082;50.658;4.608;2022-07-23T10:38:42;4.73;;;4.10;;
71296;SDS011;59082;50.658;4.608;2022-07-23T10:41:01;6.93;;;4.35;;
71296;SDS011;59082;50.658;4.608;2022-07-23T10:43:28;6.47;;;4.63;;
71296;SDS011;59082;50.658;4.608;2022-07-23T10:45:54;8.15;;;4.25;;
71296;SDS011;59082;50.658;4.608;2022-07-23T10:48:25;5.07;;;3.85;;
71296;SDS011;59082;50.658;4.608;2022-07-23T10:51:10;7.20;;;4.63;;
71296;SDS011;59082;50.658;4.608;2022-07-23T10:56:14;7.55;;;4.15;;
71296;SDS011;59082;50.658;4.608;2022-07-23T10:58:46;7.67;;;5.07;;
71296;SDS011;59082;50.658;4.608;2022-07-23T11:01:48;7.45;;;3.90;;
71296;SDS011;59082;50.658;4.608;2022-07-23T11:04:07;5.57;;;4.07;;
71296;SDS011;59082;50.658;4.608;2022-07-23T11:09:25;4.10;;;3.42;;
71296;SDS011;59082;50.658;4.608;2022-07-23T11:17:23;5.13;;;3.15;;
71296;SDS011;59082;50.658;4.608;2022-07-23T11:22:39;6.38;;;3.60;;
71296;SDS011;59082;50.658;4.608;2022-07-23T11:25:08;4.47;;;3.73;;
71296;SDS011;59082;50.658;4.608;2022-07-23T11:27:41;6.22;;;3.55;;
71296;SDS011;59082;50.658;4.608;2022-07-23T11:30:10;3.97;;;3.60;;
71296;SDS011;59082;50.658;4.608;2022-07-23T11:35:37;4.20;;;3.25;;
71296;SDS011;59082;50.658;4.608;2022-07-23T11:38:07;4.53;;;2.67;;
71296;SDS011;59082;50.658;4.608;2022-07-23T11:40:39;4.93;;;3.47;;
71296;SDS011;59082;50.658;4.608;2022-07-23T11:43:07;4.30;;;3.90;;
71296;SDS011;59082;50.658;4.608;2022-07-23T11:48:09;4.95;;;3.50;;
71296;SDS011;59082;50.658;4.608;2022-07-23T11:50:42;5.67;;;3.80;;
71296;SDS011;59082;50.658;4.608;2022-07-23T11:53:08;4.80;;;4.18;;
71296;SDS011;59082;50.658;4.608;2022-07-23T11:55:34;4.68;;;3.10;;
71296;SDS011;59082;50.658;4.608;2022-07-23T11:57:59;4.17;;;3.77;;
71296;SDS011;59082;50.658;4.608;2022-07-23T12:00:26;7.00;;;4.07;;
71296;SDS011;59082;50.658;4.608;2022-07-23T12:02:56;5.63;;;3.13;;
71296;SDS011;59082;50.658;4.608;2022-07-23T12:05:25;4.00;;;2.40;;
71296;SDS011;59082;50.658;4.608;2022-07-23T12:07:52;4.85;;;3.80;;
71296;SDS011;59082;50.658;4.608;2022-07-23T12:10:20;3.55;;;2.78;;
71296;SDS011;59082;50.658;4.608;2022-07-23T12:12:51;3.30;;;3.00;;
71296;SDS011;59082;50.658;4.608;2022-07-23T12:15:19;4.37;;;3.13;;
71296;SDS011;59082;50.658;4.608;2022-07-23T12:17:48;4.43;;;3.55;;
71296;SDS011;59082;50.658;4.608;2022-07-23T12:20:16;3.90;;;2.00;;
71296;SDS011;59082;50.658;4.608;2022-07-23T12:22:44;3.47;;;3.05;;
71296;SDS011;59082;50.658;4.608;2022-07-23T12:25:13;6.03;;;4.72;;
71296;SDS011;59082;50.658;4.608;2022-07-23T12:27:40;5.53;;;3.40;;
71296;SDS011;59082;50.658;4.608;2022-07-23T12:32:47;3.45;;;3.15;;
71296;SDS011;59082;50.658;4.608;2022-07-23T12:35:14;6.65;;;3.45;;
71296;SDS011;59082;50.658;4.608;2022-07-23T12:37:41;4.07;;;3.65;;
71296;SDS011;59082;50.658;4.608;2022-07-23T12:40:28;3.27;;;2.60;;
71296;SDS011;59082;50.658;4.608;2022-07-23T12:43:06;4.43;;;3.35;;
71296;SDS011;59082;50.658;4.608;2022-07-23T12:48:16;3.53;;;2.80;;
71296;SDS011;59082;50.658;4.608;2022-07-23T12:50:54;4.50;;;3.20;;
71296;SDS011;59082;50.658;4.608;2022-07-23T12:56:12;3.75;;;2.08;;
71296;SDS011;59082;50.658;4.608;2022-07-23T12:58:40;4.10;;;2.00;;
71296;SDS011;59082;50.658;4.608;2022-07-23T13:01:08;4.53;;;3.10;;
71296;SDS011;59082;50.658;4.608;2022-07-23T13:03:38;3.50;;;2.90;;
71296;SDS011;59082;50.658;4.608;2022-07-23T13:06:09;4.78;;;3.38;;
71296;SDS011;59082;50.658;4.608;2022-07-23T13:08:37;3.85;;;3.15;;
71296;SDS011;59082;50.658;4.608;2022-07-23T13:11:05;3.42;;;3.03;;
71296;SDS011;59082;50.658;4.608;2022-07-23T13:13:32;4.25;;;3.10;;
71296;SDS011;59082;50.658;4.608;2022-07-23T13:15:59;4.20;;;3.80;;
71296;SDS011;59082;50.658;4.608;2022-07-23T13:18:26;3.90;;;3.13;;
71296;SDS011;59082;50.658;4.608;2022-07-23T13:20:52;4.30;;;3.10;;
71296;SDS011;59082;50.658;4.608;2022-07-23T13:23:18;3.40;;;2.90;;
71296;SDS011;59082;50.658;4.608;2022-07-23T13:25:45;4.10;;;2.78;;
71296;SDS011;59082;50.658;4.608;2022-07-23T13:28:11;2.97;;;2.60;;
71296;SDS011;59082;50.658;4.608;2022-07-23T13:30:38;3.63;;;2.15;;
71296;SDS011;59082;50.658;4.608;2022-07-23T13:33:04;4.00;;;2.42;;
71296;SDS011;59082;50.658;4.608;2022-07-23T13:35:30;3.35;;;2.13;;
71296;SDS011;59082;50.658;4.608;2022-07-23T13:37:56;4.50;;;2.72;;
71296;SDS011;59082;50.658;4.608;2022-07-23T13:40:22;2.87;;;2.67;;
71296;SDS011;59082;50.658;4.608;2022-07-23T13:42:47;5.17;;;4.17;;
71296;SDS011;59082;50.658;4.608;2022-07-23T13:45:13;3.70;;;3.30;;
71296;SDS011;59082;50.658;4.608;2022-07-23T13:47:39;6.70;;;3.80;;
71296;SDS011;59082;50.658;4.608;2022-07-23T13:50:05;4.17;;;3.87;;
71296;SDS011;59082;50.658;4.608;2022-07-23T13:52:31;4.28;;;3.88;;
71296;SDS011;59082;50.658;4.608;2022-07-23T13:54:59;4.30;;;3.35;;
71296;SDS011;59082;50.658;4.608;2022-07-23T13:57:29;4.00;;;3.10;;
71296;SDS011;59082;50.658;4.608;2022-07-23T13:59:55;5.13;;;2.80;;
71296;SDS011;59082;50.658;4.608;2022-07-23T14:02:20;4.25;;;3.13;;
71296;SDS011;59082;50.658;4.608;2022-07-23T14:04:46;3.83;;;3.27;;
71296;SDS011;59082;50.658;4.608;2022-07-23T14:07:11;4.55;;;4.10;;
71296;SDS011;59082;50.658;4.608;2022-07-23T14:09:37;3.40;;;3.00;;
71296;SDS011;59082;50.658;4.608;2022-07-23T14:12:03;3.35;;;2.90;;
71296;SDS011;59082;50.658;4.608;2022-07-23T14:14:29;4.23;;;2.00;;
71296;SDS011;59082;50.658;4.608;2022-07-23T14:16:55;3.35;;;2.00;;
71296;SDS011;59082;50.658;4.608;2022-07-23T14:19:21;2.83;;;2.20;;
71296;SDS011;59082;50.658;4.608;2022-07-23T14:21:48;4.53;;;4.13;;
71296;SDS011;59082;50.658;4.608;2022-07-23T14:24:14;6.63;;;4.18;;
71296;SDS011;59082;50.658;4.608;2022-07-23T14:26:40;3.80;;;2.85;;
71296;SDS011;59082;50.658;4.608;2022-07-23T14:29:06;3.40;;;2.20;;
71296;SDS011;59082;50.658;4.608;2022-07-23T14:31:32;5.53;;;2.13;;
71296;SDS011;59082;50.658;4.608;2022-07-23T14:33:58;4.22;;;2.08;;
71296;SDS011;59082;50.658;4.608;2022-07-23T14:36:25;4.30;;;2.43;;
71296;SDS011;59082;50.658;4.608;2022-07-23T14:38:51;3.80;;;2.60;;
71296;SDS011;59082;50.658;4.608;2022-07-23T14:41:17;4.95;;;4.45;;
71296;SDS011;59082;50.658;4.608;2022-07-23T14:43:42;4.90;;;3.67;;
71296;SDS011;59082;50.658;4.608;2022-07-23T14:46:09;3.97;;;3.63;;
71296;SDS011;59082;50.658;4.608;2022-07-23T14:48:36;4.20;;;2.92;;
71296;SDS011;59082;50.658;4.608;2022-07-23T14:51:02;4.28;;;2.17;;
71296;SDS011;59082;50.658;4.608;2022-07-23T14:53:28;3.37;;;3.07;;
71296;SDS011;59082;50.658;4.608;2022-07-23T14:55:53;3.78;;;3.17;;
71296;SDS011;59082;50.658;4.608;2022-07-23T14:58:21;3.83;;;3.13;;
71296;SDS011;59082;50.658;4.608;2022-07-23T15:00:46;3.42;;;2.97;;
71296;SDS011;59082;50.658;4.608;2022-07-23T15:03:12;5.37;;;3.80;;
71296;SDS011;59082;50.658;4.608;2022-07-23T15:05:37;4.00;;;3.70;;
71296;SDS011;59082;50.658;4.608;2022-07-23T15:08:03;5.20;;;4.70;;
71296;SDS011;59082;50.658;4.608;2022-07-23T15:10:29;5.07;;;4.37;;
71296;SDS011;59082;50.658;4.608;2022-07-23T15:12:54;6.38;;;4.30;;